createdAt,value
2022-10-05T00:04:05.389Z,100799
2022-10-05T00:09:54.706Z,100798
2022-10-05T00:15:43.560Z,100813
2022-10-05T00:21:32.622Z,100809
2022-10-05T00:27:22.552Z,100805
2022-10-05T00:33:10.805Z,100800
2022-10-05T00:38:59.134Z,100795
2022-10-05T00:44:47.099Z,100770
2022-10-05T00:50:37.483Z,100759
2022-10-05T00:56:25.934Z,100753
2022-10-05T01:02:17.089Z,100756
2022-10-05T01:08:06.505Z,100750
2022-10-05T01:13:57.570Z,100763
2022-10-05T01:19:46.282Z,100762
2022-10-05T01:25:34.500Z,100764
2022-10-05T01:31:23.802Z,100769
2022-10-05T01:37:13.910Z,100780
2022-10-05T01:43:02.454Z,100785
2022-10-05T01:48:50.536Z,100789
2022-10-05T01:54:39.503Z,100790
2022-10-05T02:00:34.385Z,100788
2022-10-05T02:06:22.290Z,100790
2022-10-05T02:12:18.385Z,100796
2022-10-05T02:18:10.244Z,100780
2022-10-05T02:24:01.433Z,100771
2022-10-05T02:29:51.689Z,100761
2022-10-05T02:35:45.616Z,100750
2022-10-05T02:41:35.838Z,100749
2022-10-05T02:47:25.771Z,100747
2022-10-05T02:53:14.823Z,100746
2022-10-05T02:59:04.441Z,100737
2022-10-05T03:05:03.669Z,100735
2022-10-05T03:10:52.461Z,100742
2022-10-05T03:16:43.749Z,100738
2022-10-05T03:22:33.915Z,100750
2022-10-05T03:28:23.286Z,100748
2022-10-05T03:34:12.310Z,100746
2022-10-05T03:40:02.463Z,100740
2022-10-05T03:45:53.232Z,100736
2022-10-05T03:51:42.668Z,100740
2022-10-05T03:57:31.399Z,100735
2022-10-05T04:03:21.574Z,100733
2022-10-05T04:09:11.917Z,100735
2022-10-05T04:15:24.564Z,100732
2022-10-05T04:21:20.136Z,100737
2022-10-05T04:27:11.977Z,100735
2022-10-05T04:33:05.871Z,100716
2022-10-05T04:38:56.469Z,100715
2022-10-05T04:44:47.369Z,100710
2022-10-05T04:50:41.492Z,100703
2022-10-05T04:56:31.611Z,100705
2022-10-05T05:02:21.296Z,100716
2022-10-05T05:08:10.326Z,100704
2022-10-05T05:14:01.083Z,100708
2022-10-05T05:19:53.593Z,100700
2022-10-05T05:25:45.544Z,100707
2022-10-05T05:31:35.395Z,100705
2022-10-05T05:37:25.158Z,100706
2022-10-05T05:43:15.777Z,100713
2022-10-05T05:49:04.887Z,100721
2022-10-05T05:54:55.156Z,100725
2022-10-05T06:00:49.588Z,100720
2022-10-05T06:06:38.805Z,100721
2022-10-05T06:12:27.263Z,100728
2022-10-05T06:18:16.288Z,100721
2022-10-05T06:24:06.666Z,100721
2022-10-05T06:29:56.659Z,100723
2022-10-05T06:35:47.244Z,100724
2022-10-05T06:41:36.133Z,100722
2022-10-05T06:47:26.505Z,100711
2022-10-05T06:53:16.459Z,100716
2022-10-05T06:59:05.722Z,100712
2022-10-05T07:04:55.917Z,100711
2022-10-05T07:10:45.745Z,100710
2022-10-05T07:16:37.031Z,100713
2022-10-05T07:22:31.838Z,100713
2022-10-05T07:28:25.942Z,100712
2022-10-05T07:34:16.792Z,100710
2022-10-05T07:40:06.994Z,100702
2022-10-05T07:45:59.078Z,100698
2022-10-05T07:51:50.490Z,100698
2022-10-05T07:57:41.144Z,100699
2022-10-05T08:03:31.535Z,100696
2022-10-05T08:09:21.877Z,100692
2022-10-05T08:15:11.082Z,100699
2022-10-05T08:21:00.861Z,100701
2022-10-05T08:26:51.229Z,100698
2022-10-05T08:32:40.922Z,100689
2022-10-05T08:38:29.634Z,100691
2022-10-05T08:44:19.053Z,100696
2022-10-05T08:50:09.714Z,100687
2022-10-05T08:56:02.693Z,100683
2022-10-05T09:01:54.206Z,100685
2022-10-05T09:07:43.844Z,100680
2022-10-05T09:13:36.667Z,100680
2022-10-05T09:19:26.376Z,100675
2022-10-05T09:25:16.556Z,100671
2022-10-05T09:31:08.016Z,100667
2022-10-05T09:36:58.492Z,100665
2022-10-05T09:42:49.647Z,100658
2022-10-05T09:48:39.483Z,100649
2022-10-05T09:54:29.499Z,100649
2022-10-05T10:00:19.570Z,100649
2022-10-05T10:06:11.216Z,100650
2022-10-05T10:12:01.715Z,100632
2022-10-05T10:17:53.575Z,100635
2022-10-05T10:23:45.670Z,100630
2022-10-05T10:30:03.983Z,100634
2022-10-05T10:36:06.872Z,100634
2022-10-05T10:42:00.125Z,100636
2022-10-05T10:47:52.910Z,100645
2022-10-05T10:53:44.677Z,100632
2022-10-05T10:59:37.903Z,100628
2022-10-05T11:05:35.724Z,100632
2022-10-05T11:11:27.633Z,100638
2022-10-05T11:17:19.649Z,100638
2022-10-05T11:23:11.370Z,100624
2022-10-05T11:29:03.108Z,100625
2022-10-05T11:34:58.027Z,100621
2022-10-05T11:40:49.424Z,100611
2022-10-05T11:46:42.567Z,100596
2022-10-05T11:52:58.285Z,100600
2022-10-05T11:58:54.162Z,100583
2022-10-05T12:04:45.785Z,100574
2022-10-05T12:10:38.030Z,100576
2022-10-05T12:16:29.383Z,100565
2022-10-05T12:22:23.345Z,100560
2022-10-05T12:28:18.730Z,100558
2022-10-05T12:34:13.411Z,100556
2022-10-05T12:40:20.056Z,100550
2022-10-05T12:46:18.464Z,100535
2022-10-05T12:52:26.237Z,100542
2022-10-05T12:58:42.602Z,100517
2022-10-05T13:04:35.615Z,100508
2022-10-05T13:10:43.341Z,100500
2022-10-05T13:16:37.115Z,100486
2022-10-05T13:22:31.038Z,100485
2022-10-05T13:28:27.907Z,100472
2022-10-05T13:34:20.556Z,100466
2022-10-05T13:40:13.328Z,100458
2022-10-05T13:46:06.491Z,100447
2022-10-05T13:52:00.989Z,100448
2022-10-05T13:57:53.671Z,100441
2022-10-05T14:03:46.004Z,100413
2022-10-05T14:09:43.657Z,100397
2022-10-05T14:15:42.196Z,100400
2022-10-05T14:21:38.698Z,100398
2022-10-05T14:27:30.102Z,100403
2022-10-05T14:33:21.602Z,100394
2022-10-05T14:39:20.806Z,100388
2022-10-05T14:45:12.128Z,100393
2022-10-05T14:51:02.475Z,100392
2022-10-05T14:56:52.505Z,100399
2022-10-05T15:02:43.544Z,100401
2022-10-05T15:08:34.310Z,100388
2022-10-05T15:14:27.323Z,100397
2022-10-05T15:20:18.444Z,100389
2022-10-05T15:26:10.451Z,100402
2022-10-05T15:32:01.717Z,100400
2022-10-05T15:37:58.230Z,100414
2022-10-05T15:43:48.653Z,100422
2022-10-05T15:49:39.269Z,100426
2022-10-05T15:55:31.015Z,100426
2022-10-05T16:01:22.000Z,100430
2022-10-05T16:07:13.535Z,100436
2022-10-05T16:13:04.013Z,100435
2022-10-05T16:18:56.205Z,100449
2022-10-05T16:24:45.356Z,100473
2022-10-05T16:30:35.421Z,100478
2022-10-05T16:36:26.014Z,100503
2022-10-05T16:42:16.498Z,100507
2022-10-05T16:48:07.142Z,100506
2022-10-05T16:53:58.102Z,100519
2022-10-05T16:59:48.569Z,100524
2022-10-05T17:05:38.589Z,100533
2022-10-05T17:11:28.439Z,100535
2022-10-05T17:17:18.510Z,100545
2022-10-05T17:23:08.455Z,100549
2022-10-05T17:28:59.363Z,100558
2022-10-05T17:34:49.165Z,100565
2022-10-05T17:40:41.121Z,100572
2022-10-05T17:46:30.842Z,100575
2022-10-05T17:52:20.102Z,100594
2022-10-05T17:58:12.123Z,100604
2022-10-05T18:04:02.857Z,100616
2022-10-05T18:09:52.285Z,100626
2022-10-05T18:15:42.485Z,100622
2022-10-05T18:21:32.502Z,100637
2022-10-05T18:27:22.502Z,100651
2022-10-05T18:33:18.892Z,100653
2022-10-05T18:39:09.349Z,100662
2022-10-05T18:44:59.970Z,100673
2022-10-05T18:50:53.707Z,100687
2022-10-05T18:56:45.455Z,100696
2022-10-05T19:02:37.214Z,100703
2022-10-05T19:08:28.705Z,100709
2022-10-05T19:14:23.296Z,100723
2022-10-05T19:20:14.418Z,100726
2022-10-05T19:26:04.753Z,100725
2022-10-05T19:31:54.511Z,100699
2022-10-05T19:37:44.844Z,100693
2022-10-05T19:43:35.026Z,100694
2022-10-05T19:49:25.695Z,100723
2022-10-05T19:55:17.727Z,100720
2022-10-05T20:01:09.148Z,100735
2022-10-05T20:07:02.081Z,100745
2022-10-05T20:12:53.986Z,100760
2022-10-05T20:18:43.265Z,100760
2022-10-05T20:24:34.390Z,100762
2022-10-05T20:30:24.528Z,100771
2022-10-05T20:36:16.127Z,100773
2022-10-05T20:42:06.172Z,100792
2022-10-05T20:47:57.699Z,100806
2022-10-05T20:53:49.670Z,100808
2022-10-05T20:59:40.209Z,100815
2022-10-05T21:05:30.975Z,100792
2022-10-05T21:11:21.228Z,100817
2022-10-05T21:17:11.659Z,100834
2022-10-05T21:23:02.738Z,100838
2022-10-05T21:28:55.466Z,100849
2022-10-05T21:34:45.774Z,100853
2022-10-05T21:40:37.049Z,100848
2022-10-05T21:46:28.210Z,100849
2022-10-05T21:52:21.553Z,100855
2022-10-05T21:58:14.039Z,100860
2022-10-05T22:04:06.704Z,100865
2022-10-05T22:10:00.757Z,100869
2022-10-05T22:15:53.398Z,100872
2022-10-05T22:21:45.644Z,100882
2022-10-05T22:27:37.138Z,100895
2022-10-05T22:33:28.381Z,100899
2022-10-05T22:39:18.773Z,100908
2022-10-05T22:45:08.716Z,100922
2022-10-05T22:51:01.564Z,100930
2022-10-05T22:56:53.562Z,100951
2022-10-05T23:02:44.667Z,100967
2022-10-05T23:08:35.633Z,101076
2022-10-05T23:14:26.457Z,101057
2022-10-05T23:20:16.829Z,101048
2022-10-05T23:26:08.194Z,101057
2022-10-05T23:31:59.491Z,101066
2022-10-05T23:37:50.365Z,101057
2022-10-05T23:43:42.032Z,101065
2022-10-05T23:49:34.007Z,101082
2022-10-05T23:55:25.161Z,101089
